createdAt,value
2018-09-19T00:00:40.532Z,13.23
2018-09-19T00:03:09.520Z,13.33
2018-09-19T00:05:38.496Z,12.80
2018-09-19T00:08:07.417Z,13.50
2018-09-19T00:10:36.241Z,12.93
2018-09-19T00:13:05.025Z,13.00
2018-09-19T00:15:33.832Z,13.90
2018-09-19T00:18:02.532Z,13.10
2018-09-19T00:20:31.344Z,12.67
2018-09-19T00:23:00.118Z,13.20
2018-09-19T00:25:29.182Z,13.53
2018-09-19T00:27:58.641Z,13.33
2018-09-19T00:30:27.501Z,13.57
2018-09-19T00:32:56.325Z,13.23
2018-09-19T00:35:25.396Z,12.83
2018-09-19T00:37:54.707Z,12.70
2018-09-19T00:40:23.795Z,13.13
2018-09-19T00:42:53.069Z,13.87
2018-09-19T00:45:22.571Z,13.97
2018-09-19T00:47:51.395Z,12.97
2018-09-19T00:50:20.695Z,13.50
2018-09-19T00:52:49.569Z,14.30
2018-09-19T00:55:18.373Z,13.60
2018-09-19T00:57:47.255Z,14.77
2018-09-19T01:00:16.479Z,13.33
2018-09-19T01:02:45.470Z,12.87
2018-09-19T01:05:14.332Z,13.60
2018-09-19T01:07:43.498Z,14.20
2018-09-19T01:10:12.724Z,14.10
2018-09-19T01:12:41.900Z,13.43
2018-09-19T01:15:10.898Z,13.87
2018-09-19T01:17:39.824Z,14.17
2018-09-19T01:20:08.907Z,12.93
2018-09-19T01:22:38.338Z,12.93
2018-09-19T01:25:07.198Z,13.10
2018-09-19T01:27:36.048Z,13.60
2018-09-19T01:30:05.126Z,13.77
2018-09-19T01:32:33.978Z,13.17
2018-09-19T01:35:02.754Z,13.60
2018-09-19T01:37:31.867Z,13.20
2018-09-19T01:40:00.901Z,13.10
2018-09-19T01:42:29.669Z,11.77
2018-09-19T01:44:58.461Z,12.90
2018-09-19T01:47:27.455Z,14.47
2018-09-19T01:49:56.196Z,13.00
2018-09-19T01:52:25.231Z,13.27
2018-09-19T01:54:54.563Z,13.33
2018-09-19T01:57:23.276Z,13.80
2018-09-19T01:59:52.037Z,13.57
2018-09-19T02:02:20.788Z,12.40
2018-09-19T02:04:49.479Z,12.60
2018-09-19T02:07:18.299Z,12.90
2018-09-19T02:09:47.298Z,14.20
2018-09-19T02:12:16.047Z,13.27
2018-09-19T02:14:45.707Z,13.50
2018-09-19T02:17:14.558Z,12.80
2018-09-19T02:19:43.383Z,13.40
2018-09-19T02:22:12.164Z,14.30
2018-09-19T02:24:41.151Z,13.60
2018-09-19T02:27:09.992Z,12.60
2018-09-19T02:29:38.728Z,13.87
2018-09-19T02:32:07.557Z,13.20
2018-09-19T02:34:36.307Z,13.90
2018-09-19T02:37:05.064Z,13.53
2018-09-19T02:39:33.944Z,13.90
2018-09-19T02:42:03.097Z,13.67
2018-09-19T02:44:32.076Z,13.87
2018-09-19T02:47:01.248Z,13.70
2018-09-19T02:49:30.209Z,13.40
2018-09-19T02:51:59.990Z,13.10
2018-09-19T02:54:30.611Z,13.30
2018-09-19T02:56:59.824Z,13.00
2018-09-19T02:59:29.025Z,13.53
2018-09-19T03:01:58.342Z,13.20
2018-09-19T03:04:27.808Z,13.53
2018-09-19T03:06:56.614Z,13.67
2018-09-19T03:09:26.012Z,13.50
2018-09-19T03:11:55.118Z,13.90
2018-09-19T03:14:23.905Z,13.43
2018-09-19T03:16:52.733Z,13.53
2018-09-19T03:19:22.009Z,13.33
2018-09-19T03:21:51.750Z,13.30
2018-09-19T03:24:20.623Z,13.63
2018-09-19T03:26:49.388Z,14.17
2018-09-19T03:29:18.471Z,13.10
2018-09-19T03:31:47.265Z,13.87
2018-09-19T03:34:16.130Z,14.20
2018-09-19T03:36:45.671Z,13.70
2018-09-19T03:39:14.481Z,14.00
2018-09-19T03:41:43.274Z,13.23
2018-09-19T03:44:12.031Z,13.33
2018-09-19T03:46:41.004Z,13.33
2018-09-19T03:49:10.205Z,14.50
2018-09-19T03:51:39.817Z,14.20
2018-09-19T03:54:09.345Z,14.50
2018-09-19T03:56:38.451Z,13.97
2018-09-19T03:59:07.186Z,14.23
2018-09-19T04:01:36.648Z,14.77
2018-09-19T04:04:05.477Z,14.57
2018-09-19T04:06:34.372Z,16.53
2018-09-19T04:09:03.385Z,14.87
2018-09-19T04:11:32.314Z,14.30
2018-09-19T04:14:01.614Z,14.90
2018-09-19T04:16:30.442Z,13.20
2018-09-19T04:18:59.607Z,14.43
2018-09-19T04:21:28.761Z,14.10
2018-09-19T04:23:57.547Z,12.83
2018-09-19T04:26:26.341Z,14.00
2018-09-19T04:28:55.146Z,15.30
2018-09-19T04:31:23.935Z,14.67
2018-09-19T04:33:53.358Z,14.10
2018-09-19T04:36:22.367Z,14.13
2018-09-19T04:38:51.676Z,13.87
2018-09-19T04:41:20.519Z,14.27
2018-09-19T04:43:49.589Z,15.00
2018-09-19T04:46:18.676Z,14.83
2018-09-19T04:48:47.591Z,14.00
2018-09-19T04:51:16.485Z,14.20
2018-09-19T04:53:45.644Z,14.23
2018-09-19T04:56:14.511Z,15.23
2018-09-19T04:58:43.519Z,14.83
2018-09-19T05:01:12.498Z,14.80
2018-09-19T05:03:41.321Z,15.97
2018-09-19T05:06:10.188Z,14.80
2018-09-19T05:08:39.022Z,14.73
2018-09-19T05:11:07.868Z,14.80
2018-09-19T05:13:36.655Z,14.40
2018-09-19T05:16:05.467Z,15.37
2018-09-19T05:18:34.522Z,15.40
2018-09-19T05:21:03.689Z,15.53
2018-09-19T05:23:32.460Z,15.13
2018-09-19T05:26:01.341Z,15.03
2018-09-19T05:28:30.435Z,14.27
2018-09-19T05:30:59.164Z,17.50
2018-09-19T05:33:28.238Z,15.30
2018-09-19T05:36:00.097Z,15.10
2018-09-19T05:38:29.677Z,15.80
2018-09-19T05:40:58.775Z,15.33
2018-09-19T05:43:28.388Z,15.17
2018-09-19T05:45:57.303Z,15.87
2018-09-19T05:48:27.452Z,15.80
2018-09-19T05:50:56.203Z,15.20
2018-09-19T05:53:25.718Z,15.40
2018-09-19T05:55:55.296Z,15.77
2018-09-19T05:58:25.028Z,14.87
2018-09-19T06:00:55.136Z,16.20
2018-09-19T06:03:25.113Z,15.60
2018-09-19T06:05:54.172Z,16.00
2018-09-19T06:08:23.564Z,15.77
2018-09-19T06:10:52.853Z,15.73
2018-09-19T06:13:21.726Z,16.13
2018-09-19T06:15:50.651Z,16.33
2018-09-19T06:18:19.435Z,15.80
2018-09-19T06:20:50.046Z,15.60
2018-09-19T06:23:19.213Z,15.20
2018-09-19T06:25:48.326Z,15.40
2018-09-19T06:28:17.666Z,15.03
2018-09-19T06:30:46.937Z,15.57
2018-09-19T06:33:16.777Z,16.60
2018-09-19T06:35:46.424Z,15.43
2018-09-19T06:38:16.582Z,16.47
2018-09-19T06:40:47.084Z,16.03
2018-09-19T06:43:16.186Z,15.63
2018-09-19T06:45:45.063Z,18.17
2018-09-19T06:48:13.830Z,15.43
2018-09-19T06:50:42.635Z,15.73
2018-09-19T06:53:11.816Z,15.93
2018-09-19T06:55:40.585Z,16.30
2018-09-19T06:58:10.129Z,15.37
2018-09-19T07:00:39.912Z,15.87
2018-09-19T07:03:08.726Z,16.73
2018-09-19T07:05:37.942Z,15.60
2018-09-19T07:08:07.735Z,15.13
2018-09-19T07:10:36.551Z,15.73
2018-09-19T07:13:05.474Z,16.53
2018-09-19T07:15:34.391Z,16.13
2018-09-19T07:18:03.175Z,15.90
2018-09-19T07:20:31.985Z,15.60
2018-09-19T07:23:01.478Z,15.10
2018-09-19T07:25:30.416Z,15.37
2018-09-19T07:27:59.731Z,15.40
2018-09-19T07:30:28.932Z,15.37
2018-09-19T07:32:58.081Z,15.40
2018-09-19T07:35:26.947Z,15.63
2018-09-19T07:37:56.346Z,14.60
2018-09-19T07:40:25.328Z,15.30
2018-09-19T07:42:54.125Z,14.90
2018-09-19T07:45:23.853Z,15.60
2018-09-19T07:47:52.900Z,14.63
2018-09-19T07:50:22.790Z,15.17
2018-09-19T07:52:52.388Z,15.10
2018-09-19T07:55:21.260Z,15.30
2018-09-19T07:57:49.984Z,14.10
2018-09-19T08:00:19.293Z,14.93
2018-09-19T08:02:48.529Z,15.80
2018-09-19T08:05:17.543Z,14.80
2018-09-19T08:07:46.392Z,14.80
2018-09-19T08:10:15.422Z,14.53
2018-09-19T08:12:44.188Z,14.30
2018-09-19T08:15:12.995Z,15.13
2018-09-19T08:17:42.125Z,14.43
2018-09-19T08:20:11.148Z,13.23
2018-09-19T08:22:39.918Z,14.00
2018-09-19T08:25:08.731Z,14.17
2018-09-19T08:27:37.841Z,13.93
2018-09-19T08:30:06.746Z,14.97
2018-09-19T08:32:35.754Z,13.67
2018-09-19T08:35:04.965Z,13.73
2018-09-19T08:37:33.698Z,14.27
2018-09-19T08:40:02.736Z,14.47
2018-09-19T08:42:31.497Z,13.63
2018-09-19T08:45:01.063Z,13.20
2018-09-19T08:47:30.729Z,12.80
2018-09-19T08:49:59.965Z,13.03
2018-09-19T08:52:29.098Z,13.97
2018-09-19T08:54:58.152Z,13.17
2018-09-19T08:57:26.943Z,12.40
2018-09-19T08:59:55.752Z,14.77
2018-09-19T09:02:24.916Z,13.30
2018-09-19T09:04:54.107Z,13.33
2018-09-19T09:07:23.275Z,12.70
2018-09-19T09:09:52.101Z,12.07
2018-09-19T09:12:20.969Z,12.13
2018-09-19T09:14:49.669Z,11.60
2018-09-19T09:17:18.815Z,11.70
2018-09-19T09:19:47.874Z,12.83
2018-09-19T09:22:16.713Z,12.27
2018-09-19T09:24:46.134Z,12.27
2018-09-19T09:27:14.976Z,12.23
2018-09-19T09:29:44.073Z,11.83
2018-09-19T09:32:12.875Z,12.00
2018-09-19T09:34:42.065Z,12.50
2018-09-19T09:37:10.877Z,12.40
2018-09-19T09:39:39.754Z,12.47
2018-09-19T09:42:09.051Z,12.93
2018-09-19T09:44:38.111Z,12.40
2018-09-19T09:47:07.417Z,12.80
2018-09-19T09:49:36.761Z,12.20
2018-09-19T09:52:05.748Z,12.53
2018-09-19T09:54:35.193Z,13.00
2018-09-19T09:57:04.733Z,12.97
2018-09-19T09:59:33.630Z,12.73
2018-09-19T10:02:05.846Z,13.30
2018-09-19T10:04:35.426Z,12.10
2018-09-19T10:07:04.160Z,13.00
2018-09-19T10:09:32.992Z,12.87
2018-09-19T10:12:02.182Z,12.20
2018-09-19T10:14:30.943Z,11.80
2018-09-19T10:17:00.371Z,12.93
2018-09-19T10:19:29.582Z,11.77
2018-09-19T10:21:59.236Z,12.40
2018-09-19T10:24:28.406Z,12.00
2018-09-19T10:26:57.501Z,12.00
2018-09-19T10:29:26.865Z,12.03
2018-09-19T10:31:56.508Z,11.73
2018-09-19T10:34:25.298Z,12.10
2018-09-19T10:36:54.657Z,11.47
2018-09-19T10:39:23.928Z,12.53
2018-09-19T10:41:53.267Z,11.47
2018-09-19T10:44:22.849Z,12.90
2018-09-19T10:46:52.357Z,11.97
2018-09-19T10:49:21.390Z,11.60
2018-09-19T10:51:50.557Z,12.40
2018-09-19T10:54:19.527Z,12.90
2018-09-19T10:56:48.454Z,12.40
2018-09-19T10:59:18.329Z,11.90
2018-09-19T11:01:47.339Z,12.47
2018-09-19T11:04:16.673Z,12.27
2018-09-19T11:06:45.861Z,11.83
2018-09-19T11:09:15.455Z,12.10
2018-09-19T11:11:45.050Z,12.00
2018-09-19T11:14:13.871Z,11.93
2018-09-19T11:16:48.967Z,11.57
2018-09-19T11:19:18.102Z,11.57
2018-09-19T11:21:46.820Z,12.33
2018-09-19T11:24:16.072Z,11.77
2018-09-19T11:26:45.993Z,11.90
2018-09-19T11:29:15.162Z,12.63
2018-09-19T11:31:44.288Z,12.00
2018-09-19T11:34:13.162Z,12.23
2018-09-19T11:36:42.042Z,12.27
2018-09-19T11:39:12.537Z,12.27
2018-09-19T11:41:41.746Z,12.30
2018-09-19T11:44:10.941Z,11.13
2018-09-19T11:46:39.765Z,11.83
2018-09-19T11:49:08.904Z,11.60
2018-09-19T11:51:38.064Z,12.30
2018-09-19T11:54:07.692Z,11.50
2018-09-19T11:56:37.070Z,13.10
2018-09-19T11:59:06.203Z,11.23
2018-09-19T12:01:35.128Z,11.80
2018-09-19T12:04:04.322Z,11.50
2018-09-19T12:06:33.174Z,11.43
2018-09-19T12:09:02.315Z,11.67
2018-09-19T12:11:31.962Z,11.20
2018-09-19T12:14:07.398Z,11.07
2018-09-19T12:16:36.561Z,10.70
2018-09-19T12:19:06.210Z,11.00
2018-09-19T12:21:35.134Z,11.17
2018-09-19T12:24:04.114Z,10.93
2018-09-19T12:26:33.643Z,11.37
2018-09-19T12:29:02.726Z,11.13
2018-09-19T12:31:31.930Z,11.47
2018-09-19T12:34:00.670Z,11.23
2018-09-19T12:36:29.659Z,10.03
2018-09-19T12:38:59.389Z,11.50
2018-09-19T12:41:28.495Z,11.63
2018-09-19T12:43:57.208Z,11.50
2018-09-19T12:46:26.112Z,11.90
2018-09-19T12:48:55.098Z,11.30
2018-09-19T12:51:24.112Z,11.10
2018-09-19T12:53:53.562Z,11.67
2018-09-19T12:56:22.826Z,12.40
2018-09-19T12:58:51.766Z,10.80
2018-09-19T13:01:20.587Z,11.70
2018-09-19T13:03:49.450Z,11.20
2018-09-19T13:06:18.536Z,11.53
2018-09-19T13:08:47.748Z,10.93
2018-09-19T13:11:17.451Z,11.13
2018-09-19T13:13:46.798Z,11.50
2018-09-19T13:16:15.774Z,11.47
2018-09-19T13:18:44.716Z,11.50
2018-09-19T13:21:14.638Z,12.03
2018-09-19T13:23:43.843Z,11.00
2018-09-19T13:26:12.900Z,10.40
2018-09-19T13:28:41.744Z,11.40
2018-09-19T13:31:10.570Z,10.70
2018-09-19T13:33:39.759Z,12.10
2018-09-19T13:36:08.746Z,11.13
2018-09-19T13:38:39.421Z,12.10
2018-09-19T13:41:08.664Z,10.53
2018-09-19T13:43:37.682Z,11.87
2018-09-19T13:46:06.701Z,11.63
2018-09-19T13:48:35.588Z,10.40
2018-09-19T13:51:12.581Z,11.67
2018-09-19T13:53:41.517Z,11.43
2018-09-19T13:56:10.908Z,11.00
2018-09-19T13:58:40.474Z,10.77
2018-09-19T14:01:09.911Z,11.73
2018-09-19T14:03:38.974Z,11.47
2018-09-19T14:06:08.998Z,11.50
2018-09-19T14:08:37.909Z,11.30
2018-09-19T14:11:06.847Z,11.87
2018-09-19T14:13:35.877Z,11.80
2018-09-19T14:16:04.728Z,12.57
2018-09-19T14:18:37.193Z,11.90
2018-09-19T14:21:06.715Z,11.73
2018-09-19T14:23:37.143Z,12.10
2018-09-19T14:26:09.818Z,11.60
2018-09-19T14:28:43.017Z,11.60
2018-09-19T14:31:12.242Z,12.00
2018-09-19T14:33:41.146Z,12.40
2018-09-19T14:36:10.398Z,11.47
2018-09-19T14:38:39.940Z,13.70
2018-09-19T14:41:09.424Z,11.60
2018-09-19T14:43:38.375Z,12.10
2018-09-19T14:46:07.650Z,11.80
2018-09-19T14:48:38.573Z,13.10
2018-09-19T14:51:07.508Z,11.50
2018-09-19T14:53:36.557Z,12.90
2018-09-19T14:56:06.551Z,13.33
2018-09-19T14:58:35.671Z,13.13
2018-09-19T15:01:04.821Z,13.23
2018-09-19T15:03:34.194Z,13.87
2018-09-19T15:06:03.922Z,12.40
2018-09-19T15:08:33.337Z,12.00
2018-09-19T15:11:02.537Z,12.70
2018-09-19T15:13:31.990Z,12.53
2018-09-19T15:16:01.149Z,12.10
2018-09-19T15:18:30.142Z,13.80
2018-09-19T15:20:59.571Z,13.23
2018-09-19T15:23:28.482Z,14.00
2018-09-19T15:25:57.628Z,14.30
2018-09-19T15:28:28.371Z,13.70
2018-09-19T15:30:57.674Z,13.50
2018-09-19T15:33:29.667Z,14.20
2018-09-19T15:35:59.704Z,14.40
2018-09-19T15:38:28.524Z,14.90
2018-09-19T15:40:57.472Z,14.40
2018-09-19T15:43:26.358Z,13.83
2018-09-19T15:45:55.431Z,13.90
2018-09-19T15:48:24.991Z,13.80
2018-09-19T15:50:54.294Z,14.07
2018-09-19T15:53:24.357Z,14.33
2018-09-19T15:55:53.961Z,14.00
2018-09-19T15:58:23.327Z,14.90
2018-09-19T16:00:52.509Z,14.20
2018-09-19T16:03:22.008Z,13.17
2018-09-19T16:05:51.244Z,13.10
2018-09-19T16:08:20.494Z,12.80
2018-09-19T16:10:49.893Z,13.43
2018-09-19T16:13:19.721Z,14.63
2018-09-19T16:15:49.291Z,14.60
2018-09-19T16:18:18.530Z,13.73
2018-09-19T16:20:47.631Z,13.83
2018-09-19T16:23:16.629Z,14.07
2018-09-19T16:25:45.388Z,13.17
2018-09-19T16:28:14.339Z,14.70
2018-09-19T16:30:43.185Z,14.57
2018-09-19T16:33:12.170Z,13.73
2018-09-19T16:35:41.326Z,13.63
2018-09-19T16:38:10.916Z,14.50
2018-09-19T16:40:40.900Z,13.00
2018-09-19T16:43:10.423Z,13.60
2018-09-19T16:45:39.432Z,13.97
2018-09-19T16:48:08.609Z,13.10
2018-09-19T16:50:38.310Z,14.63
2018-09-19T16:53:08.221Z,13.67
2018-09-19T16:55:37.120Z,14.07
2018-09-19T16:58:06.212Z,13.83
2018-09-19T17:00:35.106Z,13.83
2018-09-19T17:03:04.163Z,13.47
2018-09-19T17:05:33.435Z,14.30
2018-09-19T17:08:04.537Z,14.87
2018-09-19T17:10:33.798Z,14.20
2018-09-19T17:13:02.770Z,14.23
2018-09-19T17:15:32.039Z,14.37
2018-09-19T17:18:01.242Z,14.00
2018-09-19T17:20:30.696Z,14.23
2018-09-19T17:23:04.788Z,14.80
2018-09-19T17:25:41.547Z,14.57
2018-09-19T17:28:10.808Z,13.80
2018-09-19T17:30:39.722Z,14.83
2018-09-19T17:33:08.815Z,14.50
2018-09-19T17:35:37.994Z,14.37
2018-09-19T17:38:07.054Z,14.27
2018-09-19T17:40:36.603Z,14.50
2018-09-19T17:43:05.696Z,14.97
2018-09-19T17:45:34.748Z,15.80
2018-09-19T17:48:03.779Z,16.03
2018-09-19T17:50:32.772Z,15.30
2018-09-19T17:53:01.900Z,15.00
2018-09-19T17:55:30.758Z,17.10
2018-09-19T17:57:59.710Z,16.77
2018-09-19T18:00:28.892Z,28.30
2018-09-19T18:02:58.097Z,23.43
2018-09-19T18:05:27.106Z,35.37
2018-09-19T18:07:56.302Z,26.50
2018-09-19T18:10:25.794Z,22.30
2018-09-19T18:12:54.880Z,19.50
2018-09-19T18:15:24.077Z,17.97
2018-09-19T18:17:53.831Z,16.77
2018-09-19T18:20:22.743Z,18.00
2018-09-19T18:22:51.686Z,16.83
2018-09-19T18:25:20.833Z,16.60
2018-09-19T18:27:52.037Z,16.00
2018-09-19T18:30:22.650Z,16.10
2018-09-19T18:32:51.749Z,15.70
2018-09-19T18:35:20.725Z,15.80
2018-09-19T18:37:56.758Z,15.70
2018-09-19T18:40:26.139Z,14.50
2018-09-19T18:42:55.260Z,16.10
2018-09-19T18:45:24.621Z,16.20
2018-09-19T18:50:32.662Z,14.60
2018-09-19T18:53:19.573Z,15.23
2018-09-19T18:56:00.761Z,14.90
2018-09-19T18:58:30.661Z,15.43
2018-09-19T19:01:00.137Z,14.80
2018-09-19T19:03:29.315Z,15.20
2018-09-19T19:05:59.805Z,14.60
2018-09-19T19:08:28.793Z,14.80
2018-09-19T19:11:01.365Z,15.40
2018-09-19T19:13:31.082Z,13.83
2018-09-19T19:16:00.092Z,15.57
2018-09-19T19:18:29.572Z,15.27
2018-09-19T19:20:58.669Z,15.13
2018-09-19T19:23:27.898Z,15.23
2018-09-19T19:25:57.110Z,14.83
2018-09-19T19:28:27.947Z,13.77
2018-09-19T19:31:04.104Z,14.87
2018-09-19T19:33:33.618Z,14.23
2018-09-19T19:36:03.726Z,20.23
2018-09-19T19:38:32.752Z,17.23
2018-09-19T19:41:02.497Z,14.90
2018-09-19T19:43:40.547Z,13.40
2018-09-19T19:48:53.586Z,14.33
2018-09-19T19:51:22.756Z,17.67
2018-09-19T19:53:53.036Z,15.10
2018-09-19T19:56:23.227Z,14.43
2018-09-19T19:58:53.003Z,14.87
2018-09-19T20:01:21.902Z,15.40
2018-09-19T20:03:51.038Z,14.40
2018-09-19T20:06:19.842Z,14.20
2018-09-19T20:08:48.683Z,13.60
2018-09-19T20:11:17.848Z,14.03
2018-09-19T20:13:47.415Z,14.57
2018-09-19T20:16:16.638Z,14.10
2018-09-19T20:18:45.675Z,13.83
2018-09-19T20:21:14.873Z,14.63
2018-09-19T20:23:43.991Z,14.50
2018-09-19T20:26:14.001Z,14.37
2018-09-19T20:28:42.753Z,14.73
2018-09-19T20:31:11.565Z,14.63
2018-09-19T20:33:40.332Z,15.43
2018-09-19T20:36:09.119Z,14.20
2018-09-19T20:38:38.749Z,14.20
2018-09-19T20:41:08.012Z,13.33
2018-09-19T20:43:38.484Z,14.40
2018-09-19T20:46:08.881Z,13.90
2018-09-19T20:48:38.508Z,14.33
2018-09-19T20:51:07.941Z,14.73
2018-09-19T20:53:37.543Z,14.77
2018-09-19T20:56:06.945Z,13.70
2018-09-19T20:58:35.679Z,13.63
2018-09-19T21:01:04.626Z,13.30
2018-09-19T21:03:33.654Z,13.60
2018-09-19T21:06:02.711Z,14.47
2018-09-19T21:08:31.755Z,20.73
2018-09-19T21:11:01.106Z,14.80
2018-09-19T21:13:30.103Z,14.30
2018-09-19T21:15:59.552Z,13.30
2018-09-19T21:18:28.910Z,14.20
2018-09-19T21:20:57.720Z,15.10
2018-09-19T21:23:26.791Z,12.97
2018-09-19T21:25:55.580Z,13.20
2018-09-19T21:28:24.745Z,14.43
2018-09-19T21:30:53.934Z,14.47
2018-09-19T21:33:23.198Z,13.90
2018-09-19T21:35:51.975Z,13.37
2018-09-19T21:38:20.820Z,12.90
2018-09-19T21:40:49.995Z,14.00
2018-09-19T21:43:18.776Z,13.07
2018-09-19T21:45:47.561Z,13.63
2018-09-19T21:48:16.634Z,13.93
2018-09-19T21:50:45.467Z,13.10
2018-09-19T21:53:14.619Z,13.50
2018-09-19T21:55:43.757Z,13.30
2018-09-19T21:58:12.606Z,13.70
2018-09-19T22:00:41.591Z,13.67
2018-09-19T22:03:11.014Z,13.27
2018-09-19T22:05:40.222Z,13.70
2018-09-19T22:08:09.317Z,14.60
2018-09-19T22:10:38.080Z,13.43
2018-09-19T22:13:06.937Z,13.70
2018-09-19T22:15:35.877Z,13.50
2018-09-19T22:18:04.610Z,12.90
2018-09-19T22:20:33.766Z,13.13
2018-09-19T22:23:03.276Z,13.60
2018-09-19T22:25:32.096Z,14.10
2018-09-19T22:28:00.790Z,13.97
2018-09-19T22:30:30.563Z,13.23
2018-09-19T22:32:59.537Z,13.57
2018-09-19T22:35:28.378Z,14.63
2018-09-19T22:37:57.340Z,13.80
2018-09-19T22:40:26.106Z,13.17
2018-09-19T22:42:54.890Z,12.90
2018-09-19T22:45:23.804Z,12.83
2018-09-19T22:47:52.605Z,13.40
2018-09-19T22:50:21.473Z,13.43
2018-09-19T22:52:50.447Z,14.87
2018-09-19T22:55:19.248Z,13.83
2018-09-19T22:57:48.030Z,13.07
2018-09-19T23:00:17.164Z,14.17
2018-09-19T23:02:46.262Z,13.20
2018-09-19T23:05:15.019Z,12.83
2018-09-19T23:07:43.814Z,13.57
2018-09-19T23:10:12.588Z,13.73
2018-09-19T23:12:41.743Z,13.23
2018-09-19T23:15:10.848Z,13.10
2018-09-19T23:17:39.639Z,13.30
2018-09-19T23:20:09.039Z,13.27
2018-09-19T23:22:37.804Z,13.00
2018-09-19T23:25:06.594Z,13.33
2018-09-19T23:27:35.707Z,13.23
2018-09-19T23:30:05.308Z,13.93
2018-09-19T23:32:34.510Z,14.07
2018-09-19T23:35:03.637Z,13.57
2018-09-19T23:37:32.757Z,13.20
2018-09-19T23:40:01.504Z,13.30
2018-09-19T23:42:31.327Z,13.90
2018-09-19T23:45:00.795Z,12.03
2018-09-19T23:47:30.510Z,13.20
2018-09-19T23:49:59.506Z,13.50
2018-09-19T23:52:28.800Z,12.57
2018-09-19T23:54:57.569Z,12.80
2018-09-19T23:57:26.439Z,12.40
2018-09-19T23:59:55.492Z,13.67
